sensor_id;sensor_type;location;lat;lon;timestamp;pressure;altitude;pressure_sealevel;temperature;humidity
48156;BME280;35568;48.104;11.782;2023-11-25T00:00:23;94102.94;;;0.95;55.33
48156;BME280;35568;48.104;11.782;2023-11-25T00:02:51;94098.19;;;0.86;55.33
48156;BME280;35568;48.104;11.782;2023-11-25T00:05:18;94093.87;;;0.74;55.87
48156;BME280;35568;48.104;11.782;2023-11-25T00:07:46;94091.13;;;0.68;55.29
48156;BME280;35568;48.104;11.782;2023-11-25T00:10:15;94080.01;;;0.71;55.89
48156;BME280;35568;48.104;11.782;2023-11-25T00:12:44;94077.93;;;0.31;55.65
48156;BME280;35568;48.104;11.782;2023-11-25T00:15:12;94083.15;;;0.54;55.59
48156;BME280;35568;48.104;11.782;2023-11-25T00:17:39;94083.57;;;0.36;56.06
48156;BME280;35568;48.104;11.782;2023-11-25T00:20:08;94077.26;;;0.69;56.10
48156;BME280;35568;48.104;11.782;2023-11-25T00:22:35;94075.23;;;0.57;55.69
48156;BME280;35568;48.104;11.782;2023-11-25T00:25:04;94078.33;;;0.32;56.09
48156;BME280;35568;48.104;11.782;2023-11-25T00:27:31;94078.15;;;-0.16;56.78
48156;BME280;35568;48.104;11.782;2023-11-25T00:29:58;94081.24;;;-0.23;57.02
48156;BME280;35568;48.104;11.782;2023-11-25T00:32:25;94080.20;;;0.32;57.10
48156;BME280;35568;48.104;11.782;2023-11-25T00:34:51;94076.50;;;0.23;56.71
48156;BME280;35568;48.104;11.782;2023-11-25T00:37:18;94082.60;;;0.36;56.52
48156;BME280;35568;48.104;11.782;2023-11-25T00:39:46;94080.61;;;0.60;55.59
48156;BME280;35568;48.104;11.782;2023-11-25T00:42:13;94084.59;;;0.23;56.11
48156;BME280;35568;48.104;11.782;2023-11-25T00:44:40;94083.89;;;0.26;55.95
48156;BME280;35568;48.104;11.782;2023-11-25T00:47:07;94087.46;;;-0.07;55.73
48156;BME280;35568;48.104;11.782;2023-11-25T00:49:35;94078.60;;;0.40;56.32
48156;BME280;35568;48.104;11.782;2023-11-25T00:52:02;94082.60;;;0.54;55.68
48156;BME280;35568;48.104;11.782;2023-11-25T00:54:30;94088.76;;;0.21;56.32
48156;BME280;35568;48.104;11.782;2023-11-25T00:56:58;94085.94;;;0.31;56.06
48156;BME280;35568;48.104;11.782;2023-11-25T00:59:26;94085.74;;;0.58;55.32
48156;BME280;35568;48.104;11.782;2023-11-25T01:01:53;94080.15;;;0.28;54.73
48156;BME280;35568;48.104;11.782;2023-11-25T01:04:22;94093.57;;;0.64;54.15
48156;BME280;35568;48.104;11.782;2023-11-25T01:06:50;94081.48;;;0.80;54.45
48156;BME280;35568;48.104;11.782;2023-11-25T01:09:17;94088.93;;;0.46;54.84
48156;BME280;35568;48.104;11.782;2023-11-25T01:11:44;94087.85;;;0.65;54.45
48156;BME280;35568;48.104;11.782;2023-11-25T01:14:11;94084.86;;;0.70;54.00
48156;BME280;35568;48.104;11.782;2023-11-25T01:16:38;94097.20;;;0.87;54.82
48156;BME280;35568;48.104;11.782;2023-11-25T01:19:06;94108.49;;;0.78;55.36
48156;BME280;35568;48.104;11.782;2023-11-25T01:21:32;94103.21;;;0.28;55.95
48156;BME280;35568;48.104;11.782;2023-11-25T01:24:00;94114.53;;;0.33;56.07
48156;BME280;35568;48.104;11.782;2023-11-25T01:26:27;94113.63;;;0.39;56.02
48156;BME280;35568;48.104;11.782;2023-11-25T01:28:54;94109.92;;;0.49;56.10
48156;BME280;35568;48.104;11.782;2023-11-25T01:31:22;94114.55;;;0.48;55.82
48156;BME280;35568;48.104;11.782;2023-11-25T01:33:49;94118.38;;;0.28;55.66
48156;BME280;35568;48.104;11.782;2023-11-25T01:36:16;94121.84;;;0.44;55.94
48156;BME280;35568;48.104;11.782;2023-11-25T01:38:43;94123.40;;;0.35;55.74
48156;BME280;35568;48.104;11.782;2023-11-25T01:41:10;94111.93;;;0.58;55.17
48156;BME280;35568;48.104;11.782;2023-11-25T01:43:37;94104.56;;;0.62;54.50
48156;BME280;35568;48.104;11.782;2023-11-25T01:46:05;94112.05;;;0.08;56.05
48156;BME280;35568;48.104;11.782;2023-11-25T01:48:33;94117.90;;;0.28;56.74
48156;BME280;35568;48.104;11.782;2023-11-25T01:51:02;94133.90;;;0.49;56.90
48156;BME280;35568;48.104;11.782;2023-11-25T01:53:29;94155.70;;;0.16;58.12
48156;BME280;35568;48.104;11.782;2023-11-25T01:55:58;94154.14;;;-0.15;58.79
48156;BME280;35568;48.104;11.782;2023-11-25T01:58:27;94161.74;;;-0.10;58.74
48156;BME280;35568;48.104;11.782;2023-11-25T02:00:56;94151.67;;;-0.11;58.06
48156;BME280;35568;48.104;11.782;2023-11-25T02:03:24;94160.31;;;-0.68;58.62
48156;BME280;35568;48.104;11.782;2023-11-25T02:05:51;94166.92;;;-0.58;58.42
48156;BME280;35568;48.104;11.782;2023-11-25T02:08:19;94165.41;;;-0.64;58.12
48156;BME280;35568;48.104;11.782;2023-11-25T02:10:46;94162.93;;;-0.98;57.50
48156;BME280;35568;48.104;11.782;2023-11-25T02:13:12;94176.03;;;-0.54;57.67
48156;BME280;35568;48.104;11.782;2023-11-25T02:15:42;94177.68;;;-0.63;57.21
48156;BME280;35568;48.104;11.782;2023-11-25T02:18:20;94178.64;;;-0.65;56.95
48156;BME280;35568;48.104;11.782;2023-11-25T02:20:48;94180.87;;;-0.50;56.83
48156;BME280;35568;48.104;11.782;2023-11-25T02:23:16;94183.31;;;-0.22;56.92
48156;BME280;35568;48.104;11.782;2023-11-25T02:25:45;94200.36;;;-0.39;55.60
48156;BME280;35568;48.104;11.782;2023-11-25T02:28:12;94198.07;;;-0.56;56.64
48156;BME280;35568;48.104;11.782;2023-11-25T02:30:39;94205.74;;;-0.68;56.24
48156;BME280;35568;48.104;11.782;2023-11-25T02:33:06;94218.81;;;-0.20;56.14
48156;BME280;35568;48.104;11.782;2023-11-25T02:35:33;94214.16;;;-0.24;54.65
48156;BME280;35568;48.104;11.782;2023-11-25T02:38:00;94207.45;;;0.34;54.34
48156;BME280;35568;48.104;11.782;2023-11-25T02:40:27;94222.64;;;-0.13;53.77
48156;BME280;35568;48.104;11.782;2023-11-25T02:42:54;94221.60;;;0.13;53.78
48156;BME280;35568;48.104;11.782;2023-11-25T02:45:22;94231.26;;;0.11;53.61
48156;BME280;35568;48.104;11.782;2023-11-25T02:47:49;94235.18;;;0.02;53.11
48156;BME280;35568;48.104;11.782;2023-11-25T02:50:18;94239.39;;;0.14;52.84
48156;BME280;35568;48.104;11.782;2023-11-25T02:52:45;94252.23;;;0.14;51.61
48156;BME280;35568;48.104;11.782;2023-11-25T02:55:12;94252.25;;;0.17;52.12
48156;BME280;35568;48.104;11.782;2023-11-25T02:57:40;94250.30;;;-0.19;52.80
48156;BME280;35568;48.104;11.782;2023-11-25T03:00:09;94252.30;;;-0.13;52.98
48156;BME280;35568;48.104;11.782;2023-11-25T03:02:36;94258.53;;;-0.03;51.90
48156;BME280;35568;48.104;11.782;2023-11-25T03:05:04;94267.41;;;-0.27;52.01
48156;BME280;35568;48.104;11.782;2023-11-25T03:07:31;94284.17;;;-0.47;51.82
48156;BME280;35568;48.104;11.782;2023-11-25T03:09:59;94290.15;;;-0.46;52.32
48156;BME280;35568;48.104;11.782;2023-11-25T03:12:26;94293.65;;;-0.70;51.96
48156;BME280;35568;48.104;11.782;2023-11-25T03:14:54;94305.76;;;-0.47;51.58
48156;BME280;35568;48.104;11.782;2023-11-25T03:17:20;94305.18;;;-0.58;52.25
48156;BME280;35568;48.104;11.782;2023-11-25T03:19:47;94305.89;;;-0.69;51.87
48156;BME280;35568;48.104;11.782;2023-11-25T03:22:16;94312.95;;;-0.36;51.22
48156;BME280;35568;48.104;11.782;2023-11-25T03:24:43;94309.71;;;0.29;51.33
48156;BME280;35568;48.104;11.782;2023-11-25T03:27:10;94327.69;;;-0.30;50.63
48156;BME280;35568;48.104;11.782;2023-11-25T03:29:37;94335.33;;;-0.11;51.00
48156;BME280;35568;48.104;11.782;2023-11-25T03:32:05;94347.27;;;-0.23;51.10
48156;BME280;35568;48.104;11.782;2023-11-25T03:34:33;94354.15;;;-0.06;50.29
48156;BME280;35568;48.104;11.782;2023-11-25T03:37:00;94361.61;;;-0.02;50.57
48156;BME280;35568;48.104;11.782;2023-11-25T03:39:28;94369.37;;;-0.06;50.54
48156;BME280;35568;48.104;11.782;2023-11-25T03:41:55;94374.50;;;-0.19;50.56
48156;BME280;35568;48.104;11.782;2023-11-25T03:44:23;94380.72;;;-0.24;50.60
48156;BME280;35568;48.104;11.782;2023-11-25T03:46:50;94391.17;;;-0.10;50.19
48156;BME280;35568;48.104;11.782;2023-11-25T03:49:16;94395.09;;;0.31;50.92
48156;BME280;35568;48.104;11.782;2023-11-25T03:51:44;94404.75;;;0.15;50.16
48156;BME280;35568;48.104;11.782;2023-11-25T03:54:11;94401.99;;;0.37;50.01
48156;BME280;35568;48.104;11.782;2023-11-25T03:56:39;94410.51;;;-0.28;49.94
48156;BME280;35568;48.104;11.782;2023-11-25T03:59:07;94417.45;;;0.06;50.22
48156;BME280;35568;48.104;11.782;2023-11-25T04:03:01;94419.16;;;0.34;49.41
48156;BME280;35568;48.104;11.782;2023-11-25T04:05:28;94422.68;;;0.26;49.32
48156;BME280;35568;48.104;11.782;2023-11-25T04:07:57;94433.49;;;0.29;49.18
48156;BME280;35568;48.104;11.782;2023-11-25T04:10:25;94433.61;;;0.09;49.52
48156;BME280;35568;48.104;11.782;2023-11-25T04:12:52;94433.51;;;-0.34;49.77
48156;BME280;35568;48.104;11.782;2023-11-25T04:15:20;94445.01;;;0.23;50.41
48156;BME280;35568;48.104;11.782;2023-11-25T04:17:48;94453.06;;;-0.19;49.51
48156;BME280;35568;48.104;11.782;2023-11-25T04:20:17;94450.51;;;-0.25;49.68
48156;BME280;35568;48.104;11.782;2023-11-25T04:22:46;94456.43;;;-0.03;50.71
48156;BME280;35568;48.104;11.782;2023-11-25T04:25:14;94466.26;;;-0.08;50.05
48156;BME280;35568;48.104;11.782;2023-11-25T04:27:44;94472.70;;;-0.24;50.03
48156;BME280;35568;48.104;11.782;2023-11-25T04:30:12;94474.08;;;-0.31;50.50
48156;BME280;35568;48.104;11.782;2023-11-25T04:32:42;94481.13;;;-0.30;50.38
48156;BME280;35568;48.104;11.782;2023-11-25T04:35:10;94492.78;;;-0.51;50.49
48156;BME280;35568;48.104;11.782;2023-11-25T04:37:38;94494.40;;;-0.32;50.12
48156;BME280;35568;48.104;11.782;2023-11-25T04:40:09;94504.75;;;-0.04;50.13
48156;BME280;35568;48.104;11.782;2023-11-25T04:42:37;94509.61;;;-0.12;50.12
48156;BME280;35568;48.104;11.782;2023-11-25T04:45:08;94512.72;;;0.13;50.16
48156;BME280;35568;48.104;11.782;2023-11-25T04:47:36;94516.25;;;-0.19;49.89
48156;BME280;35568;48.104;11.782;2023-11-25T04:50:05;94522.87;;;-0.25;49.65
48156;BME280;35568;48.104;11.782;2023-11-25T04:52:32;94528.34;;;-0.09;49.58
48156;BME280;35568;48.104;11.782;2023-11-25T04:55:00;94533.28;;;-0.19;49.44
48156;BME280;35568;48.104;11.782;2023-11-25T04:57:28;94542.21;;;-0.20;49.61
48156;BME280;35568;48.104;11.782;2023-11-25T04:59:57;94550.13;;;0.14;49.20
48156;BME280;35568;48.104;11.782;2023-11-25T05:02:24;94546.26;;;-0.06;49.95
48156;BME280;35568;48.104;11.782;2023-11-25T05:04:52;94540.06;;;-0.04;49.68
48156;BME280;35568;48.104;11.782;2023-11-25T05:07:19;94547.56;;;-0.14;49.68
48156;BME280;35568;48.104;11.782;2023-11-25T05:09:46;94553.07;;;-0.01;49.47
48156;BME280;35568;48.104;11.782;2023-11-25T05:12:14;94552.80;;;-0.11;49.62
48156;BME280;35568;48.104;11.782;2023-11-25T05:14:43;94554.35;;;-0.09;49.99
48156;BME280;35568;48.104;11.782;2023-11-25T05:17:11;94555.00;;;-0.13;50.04
48156;BME280;35568;48.104;11.782;2023-11-25T05:19:42;94565.53;;;0.21;49.36
48156;BME280;35568;48.104;11.782;2023-11-25T05:22:09;94566.54;;;0.24;49.57
48156;BME280;35568;48.104;11.782;2023-11-25T05:24:37;94570.03;;;-0.19;50.00
48156;BME280;35568;48.104;11.782;2023-11-25T05:27:05;94575.49;;;-0.31;49.91
48156;BME280;35568;48.104;11.782;2023-11-25T05:29:34;94575.53;;;-0.26;50.66
48156;BME280;35568;48.104;11.782;2023-11-25T05:32:02;94579.92;;;-0.62;50.13
48156;BME280;35568;48.104;11.782;2023-11-25T05:34:29;94576.84;;;-0.41;50.31
48156;BME280;35568;48.104;11.782;2023-11-25T05:36:56;94579.20;;;-0.19;49.34
48156;BME280;35568;48.104;11.782;2023-11-25T05:39:24;94584.32;;;-0.14;49.73
48156;BME280;35568;48.104;11.782;2023-11-25T05:41:51;94586.04;;;-0.29;49.48
48156;BME280;35568;48.104;11.782;2023-11-25T05:44:19;94591.48;;;-0.33;49.67
48156;BME280;35568;48.104;11.782;2023-11-25T05:46:46;94594.09;;;-0.35;50.11
48156;BME280;35568;48.104;11.782;2023-11-25T05:49:15;94599.05;;;-0.29;48.95
48156;BME280;35568;48.104;11.782;2023-11-25T05:51:42;94602.44;;;0.51;48.80
48156;BME280;35568;48.104;11.782;2023-11-25T05:54:10;94607.04;;;-0.14;48.99
48156;BME280;35568;48.104;11.782;2023-11-25T05:56:37;94608.35;;;-0.08;48.33
48156;BME280;35568;48.104;11.782;2023-11-25T05:59:04;94612.56;;;-0.10;48.23
48156;BME280;35568;48.104;11.782;2023-11-25T06:01:32;94615.00;;;0.07;48.28
48156;BME280;35568;48.104;11.782;2023-11-25T06:03:59;94609.41;;;0.08;48.51
48156;BME280;35568;48.104;11.782;2023-11-25T06:06:26;94603.30;;;0.11;48.94
48156;BME280;35568;48.104;11.782;2023-11-25T06:08:53;94594.00;;;-0.06;47.89
48156;BME280;35568;48.104;11.782;2023-11-25T06:11:21;94594.08;;;-0.10;47.68
48156;BME280;35568;48.104;11.782;2023-11-25T06:13:48;94596.14;;;-0.02;48.22
48156;BME280;35568;48.104;11.782;2023-11-25T06:16:15;94594.38;;;-0.24;48.14
48156;BME280;35568;48.104;11.782;2023-11-25T06:18:43;94602.55;;;-0.42;47.87
48156;BME280;35568;48.104;11.782;2023-11-25T06:21:11;94605.83;;;-0.33;48.14
48156;BME280;35568;48.104;11.782;2023-11-25T06:23:38;94606.61;;;-0.20;48.31
48156;BME280;35568;48.104;11.782;2023-11-25T06:26:06;94608.05;;;-1.09;47.68
48156;BME280;35568;48.104;11.782;2023-11-25T06:28:39;94615.37;;;0.03;47.07
48156;BME280;35568;48.104;11.782;2023-11-25T06:31:11;94620.30;;;-0.04;47.04
48156;BME280;35568;48.104;11.782;2023-11-25T06:33:40;94624.16;;;-0.00;47.03
48156;BME280;35568;48.104;11.782;2023-11-25T06:36:08;94626.80;;;-0.23;47.28
48156;BME280;35568;48.104;11.782;2023-11-25T06:38:36;94626.12;;;-0.16;47.32
48156;BME280;35568;48.104;11.782;2023-11-25T06:41:04;94626.40;;;-0.20;47.88
48156;BME280;35568;48.104;11.782;2023-11-25T06:43:31;94626.84;;;-0.18;47.13
48156;BME280;35568;48.104;11.782;2023-11-25T06:45:58;94628.96;;;-0.32;47.86
48156;BME280;35568;48.104;11.782;2023-11-25T06:48:25;94629.89;;;-0.22;47.99
48156;BME280;35568;48.104;11.782;2023-11-25T06:50:53;94630.66;;;-0.15;48.08
48156;BME280;35568;48.104;11.782;2023-11-25T06:53:22;94636.18;;;-0.02;48.26
48156;BME280;35568;48.104;11.782;2023-11-25T06:55:49;94634.32;;;0.02;47.97
48156;BME280;35568;48.104;11.782;2023-11-25T06:58:16;94630.65;;;-0.22;47.77
48156;BME280;35568;48.104;11.782;2023-11-25T07:00:44;94626.88;;;-0.35;47.98
48156;BME280;35568;48.104;11.782;2023-11-25T07:03:11;94631.15;;;-0.29;48.06
48156;BME280;35568;48.104;11.782;2023-11-25T07:05:38;94633.98;;;-0.40;48.33
48156;BME280;35568;48.104;11.782;2023-11-25T07:08:05;94629.18;;;-0.35;48.20
48156;BME280;35568;48.104;11.782;2023-11-25T07:10:32;94624.70;;;-0.32;47.93
48156;BME280;35568;48.104;11.782;2023-11-25T07:13:00;94625.07;;;-0.39;47.31
48156;BME280;35568;48.104;11.782;2023-11-25T07:15:28;94625.96;;;-0.20;47.46
48156;BME280;35568;48.104;11.782;2023-11-25T07:17:55;94625.86;;;-0.31;47.30
48156;BME280;35568;48.104;11.782;2023-11-25T07:20:27;94629.07;;;-0.31;47.76
48156;BME280;35568;48.104;11.782;2023-11-25T07:22:56;94626.58;;;0.05;47.71
48156;BME280;35568;48.104;11.782;2023-11-25T07:25:24;94625.94;;;-0.25;47.31
48156;BME280;35568;48.104;11.782;2023-11-25T07:27:50;94627.59;;;-0.35;47.48
48156;BME280;35568;48.104;11.782;2023-11-25T07:30:17;94630.25;;;-0.09;47.95
48156;BME280;35568;48.104;11.782;2023-11-25T07:32:46;94630.29;;;0.14;46.49
48156;BME280;35568;48.104;11.782;2023-11-25T07:35:13;94627.94;;;0.42;46.30
48156;BME280;35568;48.104;11.782;2023-11-25T07:37:41;94627.81;;;0.21;46.19
48156;BME280;35568;48.104;11.782;2023-11-25T07:40:09;94626.89;;;0.29;46.30
48156;BME280;35568;48.104;11.782;2023-11-25T07:42:36;94630.80;;;0.73;46.31
48156;BME280;35568;48.104;11.782;2023-11-25T07:45:05;94631.83;;;0.67;46.55
48156;BME280;35568;48.104;11.782;2023-11-25T07:47:33;94629.83;;;0.82;45.80
48156;BME280;35568;48.104;11.782;2023-11-25T07:50:00;94627.09;;;0.44;46.01
48156;BME280;35568;48.104;11.782;2023-11-25T07:52:27;94630.10;;;0.73;46.30
48156;BME280;35568;48.104;11.782;2023-11-25T07:54:54;94632.15;;;0.90;45.93
48156;BME280;35568;48.104;11.782;2023-11-25T07:57:23;94635.75;;;0.50;44.85
48156;BME280;35568;48.104;11.782;2023-11-25T07:59:50;94633.66;;;0.54;45.32
48156;BME280;35568;48.104;11.782;2023-11-25T08:02:17;94635.32;;;0.60;45.98
48156;BME280;35568;48.104;11.782;2023-11-25T08:04:45;94638.39;;;0.88;46.21
48156;BME280;35568;48.104;11.782;2023-11-25T08:07:12;94640.44;;;0.86;46.46
48156;BME280;35568;48.104;11.782;2023-11-25T08:09:40;94639.91;;;0.47;46.16
48156;BME280;35568;48.104;11.782;2023-11-25T08:12:08;94643.20;;;0.59;46.48
48156;BME280;35568;48.104;11.782;2023-11-25T08:14:36;94641.91;;;0.66;46.65
48156;BME280;35568;48.104;11.782;2023-11-25T08:17:04;94645.39;;;0.70;46.22
48156;BME280;35568;48.104;11.782;2023-11-25T08:19:32;94644.56;;;0.42;46.15
48156;BME280;35568;48.104;11.782;2023-11-25T08:21:59;94646.99;;;0.49;45.69
48156;BME280;35568;48.104;11.782;2023-11-25T08:24:27;94650.15;;;0.34;46.72
48156;BME280;35568;48.104;11.782;2023-11-25T08:26:55;94660.36;;;0.65;45.77
48156;BME280;35568;48.104;11.782;2023-11-25T08:29:23;94656.10;;;0.41;45.81
48156;BME280;35568;48.104;11.782;2023-11-25T08:31:50;94655.65;;;0.28;46.28
48156;BME280;35568;48.104;11.782;2023-11-25T08:34:18;94664.57;;;0.66;46.14
48156;BME280;35568;48.104;11.782;2023-11-25T08:36:45;94667.85;;;0.46;45.61
48156;BME280;35568;48.104;11.782;2023-11-25T08:39:13;94668.06;;;0.47;46.14
48156;BME280;35568;48.104;11.782;2023-11-25T08:41:41;94671.96;;;0.82;46.12
48156;BME280;35568;48.104;11.782;2023-11-25T08:44:08;94678.54;;;0.81;45.26
48156;BME280;35568;48.104;11.782;2023-11-25T08:46:36;94683.88;;;0.59;44.79
48156;BME280;35568;48.104;11.782;2023-11-25T08:49:04;94690.99;;;0.86;45.79
48156;BME280;35568;48.104;11.782;2023-11-25T08:51:33;94691.38;;;0.85;45.48
48156;BME280;35568;48.104;11.782;2023-11-25T08:54:00;94691.52;;;0.70;45.35
48156;BME280;35568;48.104;11.782;2023-11-25T08:56:27;94691.65;;;1.09;45.22
48156;BME280;35568;48.104;11.782;2023-11-25T08:58:55;94692.15;;;0.92;45.03
48156;BME280;35568;48.104;11.782;2023-11-25T09:01:23;94700.01;;;1.05;45.35
48156;BME280;35568;48.104;11.782;2023-11-25T09:03:50;94702.23;;;0.86;43.98
48156;BME280;35568;48.104;11.782;2023-11-25T09:06:18;94699.17;;;0.96;44.21
48156;BME280;35568;48.104;11.782;2023-11-25T09:08:45;94699.03;;;0.51;44.67
48156;BME280;35568;48.104;11.782;2023-11-25T09:11:14;94700.92;;;0.65;44.45
48156;BME280;35568;48.104;11.782;2023-11-25T09:13:42;94703.51;;;0.95;44.65
48156;BME280;35568;48.104;11.782;2023-11-25T09:16:10;94707.74;;;1.10;43.45
48156;BME280;35568;48.104;11.782;2023-11-25T09:18:38;94710.22;;;0.68;43.42
48156;BME280;35568;48.104;11.782;2023-11-25T09:21:07;94713.31;;;0.69;44.69
48156;BME280;35568;48.104;11.782;2023-11-25T09:23:35;94714.34;;;0.84;43.75
48156;BME280;35568;48.104;11.782;2023-11-25T09:26:02;94717.32;;;0.59;44.91
48156;BME280;35568;48.104;11.782;2023-11-25T09:28:30;94715.33;;;0.97;44.54
48156;BME280;35568;48.104;11.782;2023-11-25T09:30:58;94719.78;;;0.66;44.32
48156;BME280;35568;48.104;11.782;2023-11-25T09:33:25;94723.43;;;1.09;45.30
48156;BME280;35568;48.104;11.782;2023-11-25T09:35:52;94719.01;;;0.65;45.03
48156;BME280;35568;48.104;11.782;2023-11-25T09:38:20;94723.28;;;0.73;44.20
48156;BME280;35568;48.104;11.782;2023-11-25T09:40:48;94723.00;;;0.80;44.28
48156;BME280;35568;48.104;11.782;2023-11-25T09:43:16;94721.48;;;0.79;44.82
48156;BME280;35568;48.104;11.782;2023-11-25T09:45:44;94724.04;;;0.62;44.94
48156;BME280;35568;48.104;11.782;2023-11-25T09:48:12;94724.11;;;0.66;45.57
48156;BME280;35568;48.104;11.782;2023-11-25T09:50:39;94718.94;;;0.61;44.91
48156;BME280;35568;48.104;11.782;2023-11-25T09:53:12;94721.33;;;0.59;45.26
48156;BME280;35568;48.104;11.782;2023-11-25T09:55:40;94724.56;;;0.66;45.39
48156;BME280;35568;48.104;11.782;2023-11-25T09:58:11;94713.82;;;0.74;45.48
48156;BME280;35568;48.104;11.782;2023-11-25T10:00:39;94717.86;;;0.91;45.00
48156;BME280;35568;48.104;11.782;2023-11-25T10:03:07;94716.72;;;1.14;45.42
48156;BME280;35568;48.104;11.782;2023-11-25T10:05:35;94714.97;;;0.89;44.80
48156;BME280;35568;48.104;11.782;2023-11-25T10:08:02;94715.17;;;0.53;45.40
48156;BME280;35568;48.104;11.782;2023-11-25T10:10:32;94720.71;;;0.90;45.60
48156;BME280;35568;48.104;11.782;2023-11-25T10:13:00;94718.30;;;1.07;44.42
48156;BME280;35568;48.104;11.782;2023-11-25T10:15:28;94723.30;;;0.90;45.34
48156;BME280;35568;48.104;11.782;2023-11-25T10:17:56;94721.37;;;1.18;44.83
48156;BME280;35568;48.104;11.782;2023-11-25T10:20:23;94723.12;;;0.94;44.87
48156;BME280;35568;48.104;11.782;2023-11-25T10:22:53;94728.15;;;1.08;45.26
48156;BME280;35568;48.104;11.782;2023-11-25T10:25:21;94729.74;;;1.09;44.97
48156;BME280;35568;48.104;11.782;2023-11-25T10:27:49;94728.61;;;1.24;44.06
48156;BME280;35568;48.104;11.782;2023-11-25T10:30:16;94732.21;;;0.99;44.09
48156;BME280;35568;48.104;11.782;2023-11-25T10:32:45;94731.66;;;0.94;44.44
48156;BME280;35568;48.104;11.782;2023-11-25T10:35:13;94735.31;;;0.84;45.40
48156;BME280;35568;48.104;11.782;2023-11-25T10:37:41;94729.49;;;0.95;44.93
48156;BME280;35568;48.104;11.782;2023-11-25T10:40:10;94729.12;;;1.02;45.24
48156;BME280;35568;48.104;11.782;2023-11-25T10:42:41;94732.90;;;1.12;44.56
48156;BME280;35568;48.104;11.782;2023-11-25T10:45:15;94727.73;;;1.26;44.21
48156;BME280;35568;48.104;11.782;2023-11-25T10:47:43;94727.32;;;1.08;45.14
48156;BME280;35568;48.104;11.782;2023-11-25T10:50:11;94729.94;;;1.20;44.57
48156;BME280;35568;48.104;11.782;2023-11-25T10:52:42;94730.71;;;1.34;44.16
48156;BME280;35568;48.104;11.782;2023-11-25T10:55:17;94729.96;;;1.22;43.61
48156;BME280;35568;48.104;11.782;2023-11-25T10:57:50;94729.64;;;1.21;43.77
48156;BME280;35568;48.104;11.782;2023-11-25T11:00:19;94732.64;;;1.61;44.79
48156;BME280;35568;48.104;11.782;2023-11-25T11:02:48;94730.07;;;1.49;45.34
48156;BME280;35568;48.104;11.782;2023-11-25T11:05:21;94724.20;;;0.90;45.45
48156;BME280;35568;48.104;11.782;2023-11-25T11:07:54;94722.96;;;0.75;46.21
48156;BME280;35568;48.104;11.782;2023-11-25T11:10:31;94718.89;;;1.04;45.28
48156;BME280;35568;48.104;11.782;2023-11-25T11:13:03;94719.15;;;0.89;45.87
48156;BME280;35568;48.104;11.782;2023-11-25T11:15:32;94714.37;;;0.86;45.67
48156;BME280;35568;48.104;11.782;2023-11-25T11:18:08;94716.87;;;0.98;45.86
48156;BME280;35568;48.104;11.782;2023-11-25T11:20:43;94713.59;;;1.08;46.08
48156;BME280;35568;48.104;11.782;2023-11-25T11:23:11;94706.03;;;1.02;45.49
48156;BME280;35568;48.104;11.782;2023-11-25T11:25:51;94702.50;;;1.03;45.99
48156;BME280;35568;48.104;11.782;2023-11-25T11:28:25;94697.90;;;1.21;45.87
48156;BME280;35568;48.104;11.782;2023-11-25T11:31:29;94695.96;;;1.24;46.07
48156;BME280;35568;48.104;11.782;2023-11-25T11:34:02;94692.97;;;1.32;46.02
48156;BME280;35568;48.104;11.782;2023-11-25T11:36:30;94690.12;;;1.12;45.95
48156;BME280;35568;48.104;11.782;2023-11-25T11:38:58;94693.33;;;1.19;46.03
48156;BME280;35568;48.104;11.782;2023-11-25T11:41:26;94689.91;;;1.32;45.98
48156;BME280;35568;48.104;11.782;2023-11-25T11:44:02;94689.50;;;1.12;45.80
48156;BME280;35568;48.104;11.782;2023-11-25T11:46:30;94691.27;;;1.18;45.82
48156;BME280;35568;48.104;11.782;2023-11-25T11:48:59;94682.34;;;1.09;46.44
48156;BME280;35568;48.104;11.782;2023-11-25T11:51:26;94675.86;;;1.22;46.29
48156;BME280;35568;48.104;11.782;2023-11-25T11:54:26;94676.42;;;1.57;46.71
48156;BME280;35568;48.104;11.782;2023-11-25T11:57:02;94673.99;;;1.52;45.65
48156;BME280;35568;48.104;11.782;2023-11-25T12:00:02;94672.32;;;1.65;45.40
48156;BME280;35568;48.104;11.782;2023-11-25T12:02:31;94675.17;;;1.14;45.53
48156;BME280;35568;48.104;11.782;2023-11-25T12:04:59;94678.53;;;1.35;45.00
48156;BME280;35568;48.104;11.782;2023-11-25T12:07:28;94677.07;;;1.45;45.69
48156;BME280;35568;48.104;11.782;2023-11-25T12:09:55;94676.07;;;0.99;45.84
48156;BME280;35568;48.104;11.782;2023-11-25T12:12:24;94674.35;;;0.95;46.16
48156;BME280;35568;48.104;11.782;2023-11-25T12:14:52;94678.81;;;1.04;46.51
48156;BME280;35568;48.104;11.782;2023-11-25T12:17:20;94683.98;;;1.27;47.29
48156;BME280;35568;48.104;11.782;2023-11-25T12:19:49;94683.86;;;1.00;46.94
48156;BME280;35568;48.104;11.782;2023-11-25T12:22:19;94683.17;;;0.88;47.40
48156;BME280;35568;48.104;11.782;2023-11-25T12:24:46;94680.19;;;1.12;47.10
48156;BME280;35568;48.104;11.782;2023-11-25T12:27:15;94677.58;;;1.03;47.31
48156;BME280;35568;48.104;11.782;2023-11-25T12:29:46;94668.81;;;0.95;47.41
48156;BME280;35568;48.104;11.782;2023-11-25T12:32:14;94661.36;;;1.25;46.78
48156;BME280;35568;48.104;11.782;2023-11-25T12:34:41;94661.82;;;0.95;47.64
48156;BME280;35568;48.104;11.782;2023-11-25T12:37:08;94649.46;;;1.23;47.33
48156;BME280;35568;48.104;11.782;2023-11-25T12:39:38;94641.88;;;1.15;47.19
48156;BME280;35568;48.104;11.782;2023-11-25T12:42:05;94642.53;;;1.23;47.03
48156;BME280;35568;48.104;11.782;2023-11-25T12:44:47;94640.19;;;0.99;47.10
48156;BME280;35568;48.104;11.782;2023-11-25T12:47:14;94642.33;;;0.74;47.29
48156;BME280;35568;48.104;11.782;2023-11-25T12:49:41;94640.36;;;0.99;47.31
48156;BME280;35568;48.104;11.782;2023-11-25T12:52:18;94646.01;;;1.33;47.37
48156;BME280;35568;48.104;11.782;2023-11-25T12:54:46;94635.89;;;0.99;47.03
48156;BME280;35568;48.104;11.782;2023-11-25T12:57:13;94632.13;;;1.40;46.47
48156;BME280;35568;48.104;11.782;2023-11-25T12:59:41;94630.37;;;1.23;46.85
48156;BME280;35568;48.104;11.782;2023-11-25T13:02:09;94628.09;;;1.64;46.36
48156;BME280;35568;48.104;11.782;2023-11-25T13:04:43;94630.58;;;1.74;46.03